sensor_id;sensor_type;location;lat;lon;timestamp;temperature;humidity
4509;DHT22;2267;48.816;9.230;2022-08-01T00:00:06;26.80;57.60
4509;DHT22;2267;48.816;9.230;2022-08-01T00:02:38;26.80;57.70
4509;DHT22;2267;48.816;9.230;2022-08-01T00:05:06;26.80;57.80
4509;DHT22;2267;48.816;9.230;2022-08-01T00:07:34;26.80;57.90
4509;DHT22;2267;48.816;9.230;2022-08-01T00:10:04;26.80;57.90
4509;DHT22;2267;48.816;9.230;2022-08-01T00:12:32;26.70;57.90
4509;DHT22;2267;48.816;9.230;2022-08-01T00:14:59;26.70;57.90
4509;DHT22;2267;48.816;9.230;2022-08-01T00:17:26;26.70;58.00
4509;DHT22;2267;48.816;9.230;2022-08-01T00:19:52;26.60;57.90
4509;DHT22;2267;48.816;9.230;2022-08-01T00:22:19;26.60;58.10
4509;DHT22;2267;48.816;9.230;2022-08-01T00:24:46;26.60;58.20
4509;DHT22;2267;48.816;9.230;2022-08-01T00:27:13;26.60;58.40
4509;DHT22;2267;48.816;9.230;2022-08-01T00:29:40;26.50;58.30
4509;DHT22;2267;48.816;9.230;2022-08-01T00:32:27;26.50;58.40
4509;DHT22;2267;48.816;9.230;2022-08-01T00:34:56;26.50;58.50
4509;DHT22;2267;48.816;9.230;2022-08-01T00:37:22;26.40;58.70
4509;DHT22;2267;48.816;9.230;2022-08-01T00:39:49;26.40;58.80
4509;DHT22;2267;48.816;9.230;2022-08-01T00:42:16;26.40;58.90
4509;DHT22;2267;48.816;9.230;2022-08-01T00:44:43;26.30;59.00
4509;DHT22;2267;48.816;9.230;2022-08-01T00:47:09;26.30;59.30
4509;DHT22;2267;48.816;9.230;2022-08-01T00:49:36;26.30;59.40
4509;DHT22;2267;48.816;9.230;2022-08-01T00:52:04;26.30;59.60
4509;DHT22;2267;48.816;9.230;2022-08-01T00:54:32;26.30;59.50
4509;DHT22;2267;48.816;9.230;2022-08-01T00:56:59;26.30;59.80
4509;DHT22;2267;48.816;9.230;2022-08-01T00:59:27;26.20;59.70
4509;DHT22;2267;48.816;9.230;2022-08-01T01:01:54;26.30;59.90
4509;DHT22;2267;48.816;9.230;2022-08-01T01:04:21;26.20;59.80
4509;DHT22;2267;48.816;9.230;2022-08-01T01:06:56;26.20;60.10
4509;DHT22;2267;48.816;9.230;2022-08-01T01:12:02;26.20;60.30
4509;DHT22;2267;48.816;9.230;2022-08-01T01:14:36;26.20;60.40
4509;DHT22;2267;48.816;9.230;2022-08-01T01:17:07;26.10;60.50
4509;DHT22;2267;48.816;9.230;2022-08-01T01:19:41;26.10;60.80
4509;DHT22;2267;48.816;9.230;2022-08-01T01:22:46;26.10;61.20
4509;DHT22;2267;48.816;9.230;2022-08-01T01:25:22;26.00;61.30
4509;DHT22;2267;48.816;9.230;2022-08-01T01:30:30;25.90;61.90
4509;DHT22;2267;48.816;9.230;2022-08-01T01:33:03;25.90;62.20
4509;DHT22;2267;48.816;9.230;2022-08-01T01:35:35;25.90;62.40
4509;DHT22;2267;48.816;9.230;2022-08-01T01:38:18;25.90;62.50
4509;DHT22;2267;48.816;9.230;2022-08-01T01:40:47;25.90;62.70
4509;DHT22;2267;48.816;9.230;2022-08-01T01:43:16;25.90;62.80
4509;DHT22;2267;48.816;9.230;2022-08-01T01:45:46;25.90;62.90
4509;DHT22;2267;48.816;9.230;2022-08-01T01:48:16;25.90;63.30
4509;DHT22;2267;48.816;9.230;2022-08-01T01:50:45;25.90;63.40
4509;DHT22;2267;48.816;9.230;2022-08-01T01:53:14;25.90;63.50
4509;DHT22;2267;48.816;9.230;2022-08-01T01:55:43;25.90;63.60
4509;DHT22;2267;48.816;9.230;2022-08-01T01:58:16;25.90;63.70
4509;DHT22;2267;48.816;9.230;2022-08-01T02:00:45;25.80;63.70
4509;DHT22;2267;48.816;9.230;2022-08-01T02:03:13;25.80;64.00
4509;DHT22;2267;48.816;9.230;2022-08-01T02:05:41;25.80;64.30
4509;DHT22;2267;48.816;9.230;2022-08-01T02:08:10;25.80;64.40
4509;DHT22;2267;48.816;9.230;2022-08-01T02:10:39;25.80;64.80
4509;DHT22;2267;48.816;9.230;2022-08-01T02:13:07;25.80;64.80
4509;DHT22;2267;48.816;9.230;2022-08-01T02:15:36;25.80;65.00
4509;DHT22;2267;48.816;9.230;2022-08-01T02:18:25;25.80;65.10
4509;DHT22;2267;48.816;9.230;2022-08-01T02:20:54;25.70;65.00
4509;DHT22;2267;48.816;9.230;2022-08-01T02:23:23;25.70;65.20
4509;DHT22;2267;48.816;9.230;2022-08-01T02:25:55;25.70;65.50
4509;DHT22;2267;48.816;9.230;2022-08-01T02:28:52;25.70;65.60
4509;DHT22;2267;48.816;9.230;2022-08-01T02:31:21;25.60;65.70
4509;DHT22;2267;48.816;9.230;2022-08-01T02:34:00;25.60;66.00
4509;DHT22;2267;48.816;9.230;2022-08-01T02:36:34;25.60;66.00
4509;DHT22;2267;48.816;9.230;2022-08-01T02:39:06;25.50;66.20
4509;DHT22;2267;48.816;9.230;2022-08-01T02:41:39;25.50;66.30
4509;DHT22;2267;48.816;9.230;2022-08-01T02:44:09;25.50;66.50
4509;DHT22;2267;48.816;9.230;2022-08-01T02:46:40;25.50;66.80
4509;DHT22;2267;48.816;9.230;2022-08-01T02:49:11;25.40;67.10
4509;DHT22;2267;48.816;9.230;2022-08-01T02:51:40;25.40;67.10
4509;DHT22;2267;48.816;9.230;2022-08-01T02:54:08;25.40;67.30
4509;DHT22;2267;48.816;9.230;2022-08-01T02:56:35;25.30;67.30
4509;DHT22;2267;48.816;9.230;2022-08-01T02:59:10;25.30;67.50
4509;DHT22;2267;48.816;9.230;2022-08-01T03:01:40;25.30;67.80
4509;DHT22;2267;48.816;9.230;2022-08-01T03:04:10;25.30;68.00
4509;DHT22;2267;48.816;9.230;2022-08-01T03:06:38;25.30;68.20
4509;DHT22;2267;48.816;9.230;2022-08-01T03:09:08;25.20;68.30
4509;DHT22;2267;48.816;9.230;2022-08-01T03:11:38;25.20;68.50
4509;DHT22;2267;48.816;9.230;2022-08-01T03:14:08;25.20;68.80
4509;DHT22;2267;48.816;9.230;2022-08-01T03:16:37;25.20;68.80
4509;DHT22;2267;48.816;9.230;2022-08-01T03:19:07;25.20;69.90
4509;DHT22;2267;48.816;9.230;2022-08-01T03:21:35;25.10;69.10
4509;DHT22;2267;48.816;9.230;2022-08-01T03:24:05;25.10;69.20
4509;DHT22;2267;48.816;9.230;2022-08-01T03:26:35;25.10;69.50
4509;DHT22;2267;48.816;9.230;2022-08-01T03:29:06;25.10;69.30
4509;DHT22;2267;48.816;9.230;2022-08-01T03:31:37;25.10;69.50
4509;DHT22;2267;48.816;9.230;2022-08-01T03:34:05;25.00;70.50
4509;DHT22;2267;48.816;9.230;2022-08-01T03:36:33;25.00;70.00
4509;DHT22;2267;48.816;9.230;2022-08-01T03:39:03;25.00;70.00
4509;DHT22;2267;48.816;9.230;2022-08-01T03:41:37;25.00;70.30
4509;DHT22;2267;48.816;9.230;2022-08-01T03:44:09;25.00;70.50
4509;DHT22;2267;48.816;9.230;2022-08-01T03:46:42;24.90;70.60
4509;DHT22;2267;48.816;9.230;2022-08-01T03:49:20;24.90;70.80
4509;DHT22;2267;48.816;9.230;2022-08-01T03:51:49;24.80;71.00
4509;DHT22;2267;48.816;9.230;2022-08-01T03:54:21;24.80;71.20
4509;DHT22;2267;48.816;9.230;2022-08-01T03:56:51;24.80;71.30
4509;DHT22;2267;48.816;9.230;2022-08-01T03:59:19;24.80;71.40
4509;DHT22;2267;48.816;9.230;2022-08-01T04:01:46;24.80;71.60
4509;DHT22;2267;48.816;9.230;2022-08-01T04:04:14;24.80;71.80
4509;DHT22;2267;48.816;9.230;2022-08-01T04:06:41;24.70;71.80
4509;DHT22;2267;48.816;9.230;2022-08-01T04:09:10;24.80;72.10
4509;DHT22;2267;48.816;9.230;2022-08-01T04:11:39;24.70;71.80
4509;DHT22;2267;48.816;9.230;2022-08-01T04:14:07;24.80;72.30
4509;DHT22;2267;48.816;9.230;2022-08-01T04:16:35;24.70;72.20
4509;DHT22;2267;48.816;9.230;2022-08-01T04:19:02;24.70;72.00
4509;DHT22;2267;48.816;9.230;2022-08-01T04:21:31;24.70;71.90
4509;DHT22;2267;48.816;9.230;2022-08-01T04:24:03;24.70;72.30
4509;DHT22;2267;48.816;9.230;2022-08-01T04:26:34;24.70;72.20
4509;DHT22;2267;48.816;9.230;2022-08-01T04:29:03;24.60;72.40
4509;DHT22;2267;48.816;9.230;2022-08-01T04:31:31;24.60;72.60
4509;DHT22;2267;48.816;9.230;2022-08-01T04:34:00;24.60;72.90
4509;DHT22;2267;48.816;9.230;2022-08-01T04:36:28;24.60;73.00
4509;DHT22;2267;48.816;9.230;2022-08-01T04:39:00;24.60;73.50
4509;DHT22;2267;48.816;9.230;2022-08-01T04:41:28;24.60;73.50
4509;DHT22;2267;48.816;9.230;2022-08-01T04:43:57;24.60;73.70
4509;DHT22;2267;48.816;9.230;2022-08-01T04:46:27;24.60;73.80
4509;DHT22;2267;48.816;9.230;2022-08-01T04:48:55;24.60;74.10
4509;DHT22;2267;48.816;9.230;2022-08-01T04:51:22;24.60;74.40
4509;DHT22;2267;48.816;9.230;2022-08-01T04:53:49;24.60;74.60
4509;DHT22;2267;48.816;9.230;2022-08-01T04:56:20;24.60;74.70
4509;DHT22;2267;48.816;9.230;2022-08-01T04:58:47;24.60;74.90
4509;DHT22;2267;48.816;9.230;2022-08-01T05:01:14;24.70;74.40
4509;DHT22;2267;48.816;9.230;2022-08-01T05:03:42;24.70;74.20
4509;DHT22;2267;48.816;9.230;2022-08-01T05:06:09;24.70;74.20
4509;DHT22;2267;48.816;9.230;2022-08-01T05:08:35;24.80;74.20
4509;DHT22;2267;48.816;9.230;2022-08-01T05:11:03;24.70;74.10
4509;DHT22;2267;48.816;9.230;2022-08-01T05:13:29;24.80;74.30
4509;DHT22;2267;48.816;9.230;2022-08-01T05:15:56;24.70;74.20
4509;DHT22;2267;48.816;9.230;2022-08-01T05:18:25;24.70;74.30
4509;DHT22;2267;48.816;9.230;2022-08-01T05:20:54;24.70;74.60
4509;DHT22;2267;48.816;9.230;2022-08-01T05:23:21;24.70;74.80
4509;DHT22;2267;48.816;9.230;2022-08-01T05:26:07;24.70;74.80
4509;DHT22;2267;48.816;9.230;2022-08-01T05:28:35;24.70;75.30
4509;DHT22;2267;48.816;9.230;2022-08-01T05:31:02;24.60;75.60
4509;DHT22;2267;48.816;9.230;2022-08-01T05:33:29;24.70;75.60
4509;DHT22;2267;48.816;9.230;2022-08-01T05:35:56;24.70;75.60
4509;DHT22;2267;48.816;9.230;2022-08-01T05:38:23;24.70;76.30
4509;DHT22;2267;48.816;9.230;2022-08-01T05:40:50;24.80;76.00
4509;DHT22;2267;48.816;9.230;2022-08-01T05:43:16;24.80;76.40
4509;DHT22;2267;48.816;9.230;2022-08-01T05:45:43;24.90;76.10
4509;DHT22;2267;48.816;9.230;2022-08-01T05:48:11;24.90;76.30
4509;DHT22;2267;48.816;9.230;2022-08-01T05:50:37;24.90;76.20
4509;DHT22;2267;48.816;9.230;2022-08-01T05:53:04;25.00;76.30
4509;DHT22;2267;48.816;9.230;2022-08-01T05:55:31;25.00;76.20
4509;DHT22;2267;48.816;9.230;2022-08-01T05:57:58;25.10;76.50
4509;DHT22;2267;48.816;9.230;2022-08-01T06:00:25;25.10;76.90
4509;DHT22;2267;48.816;9.230;2022-08-01T06:02:52;25.10;76.70
4509;DHT22;2267;48.816;9.230;2022-08-01T06:05:19;25.20;77.10
4509;DHT22;2267;48.816;9.230;2022-08-01T06:07:46;25.20;77.90
4509;DHT22;2267;48.816;9.230;2022-08-01T06:10:13;25.30;78.20
4509;DHT22;2267;48.816;9.230;2022-08-01T06:12:40;25.40;78.10
4509;DHT22;2267;48.816;9.230;2022-08-01T06:15:07;25.50;78.00
4509;DHT22;2267;48.816;9.230;2022-08-01T06:17:34;25.50;77.80
4509;DHT22;2267;48.816;9.230;2022-08-01T06:20:01;25.50;77.60
4509;DHT22;2267;48.816;9.230;2022-08-01T06:22:28;25.60;77.30
4509;DHT22;2267;48.816;9.230;2022-08-01T06:24:56;25.60;78.90
4509;DHT22;2267;48.816;9.230;2022-08-01T06:27:23;25.60;78.20
4509;DHT22;2267;48.816;9.230;2022-08-01T06:29:51;25.70;79.10
4509;DHT22;2267;48.816;9.230;2022-08-01T06:32:23;25.70;78.70
4509;DHT22;2267;48.816;9.230;2022-08-01T06:34:54;25.70;79.20
4509;DHT22;2267;48.816;9.230;2022-08-01T06:37:22;25.70;78.60
4509;DHT22;2267;48.816;9.230;2022-08-01T06:39:49;25.80;77.70
4509;DHT22;2267;48.816;9.230;2022-08-01T06:42:16;25.80;78.60
4509;DHT22;2267;48.816;9.230;2022-08-01T06:44:44;25.80;79.50
4509;DHT22;2267;48.816;9.230;2022-08-01T06:47:11;25.90;79.20
4509;DHT22;2267;48.816;9.230;2022-08-01T06:49:38;25.90;77.40
4509;DHT22;2267;48.816;9.230;2022-08-01T06:52:05;26.00;77.60
4509;DHT22;2267;48.816;9.230;2022-08-01T06:54:32;26.00;77.40
4509;DHT22;2267;48.816;9.230;2022-08-01T06:56:59;26.10;77.40
4509;DHT22;2267;48.816;9.230;2022-08-01T06:59:25;26.10;77.10
4509;DHT22;2267;48.816;9.230;2022-08-01T07:01:52;26.10;77.10
4509;DHT22;2267;48.816;9.230;2022-08-01T07:04:19;26.10;76.40
4509;DHT22;2267;48.816;9.230;2022-08-01T07:06:46;26.10;77.20
4509;DHT22;2267;48.816;9.230;2022-08-01T07:09:13;26.20;77.50
4509;DHT22;2267;48.816;9.230;2022-08-01T07:11:40;26.20;76.40
4509;DHT22;2267;48.816;9.230;2022-08-01T07:14:07;26.20;76.50
4509;DHT22;2267;48.816;9.230;2022-08-01T07:16:34;26.30;76.50
4509;DHT22;2267;48.816;9.230;2022-08-01T07:19:02;26.30;76.20
4509;DHT22;2267;48.816;9.230;2022-08-01T07:21:28;26.30;76.20
4509;DHT22;2267;48.816;9.230;2022-08-01T07:24:08;26.30;76.00
4509;DHT22;2267;48.816;9.230;2022-08-01T07:26:46;26.30;75.80
4509;DHT22;2267;48.816;9.230;2022-08-01T07:29:21;26.40;76.00
4509;DHT22;2267;48.816;9.230;2022-08-01T07:31:48;26.40;75.60
4509;DHT22;2267;48.816;9.230;2022-08-01T07:34:15;26.40;75.60
4509;DHT22;2267;48.816;9.230;2022-08-01T07:36:42;26.40;75.90
4509;DHT22;2267;48.816;9.230;2022-08-01T07:39:09;26.40;75.60
4509;DHT22;2267;48.816;9.230;2022-08-01T07:41:36;26.50;75.70
4509;DHT22;2267;48.816;9.230;2022-08-01T07:44:22;26.50;75.50
4509;DHT22;2267;48.816;9.230;2022-08-01T07:46:53;26.50;76.30
4509;DHT22;2267;48.816;9.230;2022-08-01T07:49:20;26.50;76.20
4509;DHT22;2267;48.816;9.230;2022-08-01T07:51:48;26.60;75.80
4509;DHT22;2267;48.816;9.230;2022-08-01T07:54:30;26.60;75.40
4509;DHT22;2267;48.816;9.230;2022-08-01T07:57:00;26.60;75.40
4509;DHT22;2267;48.816;9.230;2022-08-01T07:59:27;26.70;75.50
4509;DHT22;2267;48.816;9.230;2022-08-01T08:01:54;26.60;75.60
4509;DHT22;2267;48.816;9.230;2022-08-01T08:04:21;26.60;76.20
4509;DHT22;2267;48.816;9.230;2022-08-01T08:06:48;26.70;75.30
4509;DHT22;2267;48.816;9.230;2022-08-01T08:09:15;26.70;75.20
4509;DHT22;2267;48.816;9.230;2022-08-01T08:11:46;26.80;75.00
4509;DHT22;2267;48.816;9.230;2022-08-01T08:14:15;26.80;74.70
4509;DHT22;2267;48.816;9.230;2022-08-01T08:16:43;26.90;74.70
4509;DHT22;2267;48.816;9.230;2022-08-01T08:19:11;26.80;74.80
4509;DHT22;2267;48.816;9.230;2022-08-01T08:21:38;26.80;75.00
4509;DHT22;2267;48.816;9.230;2022-08-01T08:24:06;26.80;75.00
4509;DHT22;2267;48.816;9.230;2022-08-01T08:26:58;26.90;74.80
4509;DHT22;2267;48.816;9.230;2022-08-01T08:29:26;26.90;75.10
4509;DHT22;2267;48.816;9.230;2022-08-01T08:31:54;26.90;75.40
4509;DHT22;2267;48.816;9.230;2022-08-01T08:34:25;27.00;75.20
4509;DHT22;2267;48.816;9.230;2022-08-01T08:36:52;27.00;75.00
4509;DHT22;2267;48.816;9.230;2022-08-01T08:39:20;27.00;74.70
4509;DHT22;2267;48.816;9.230;2022-08-01T08:41:47;27.00;74.30
4509;DHT22;2267;48.816;9.230;2022-08-01T08:44:16;27.00;74.00
4509;DHT22;2267;48.816;9.230;2022-08-01T08:46:48;27.00;74.10
4509;DHT22;2267;48.816;9.230;2022-08-01T08:49:19;27.10;75.20
4509;DHT22;2267;48.816;9.230;2022-08-01T08:51:48;27.20;74.50
4509;DHT22;2267;48.816;9.230;2022-08-01T08:54:17;27.20;74.00
4509;DHT22;2267;48.816;9.230;2022-08-01T08:56:46;27.20;73.90
4509;DHT22;2267;48.816;9.230;2022-08-01T08:59:13;27.20;73.70
4509;DHT22;2267;48.816;9.230;2022-08-01T09:01:41;27.20;75.50
4509;DHT22;2267;48.816;9.230;2022-08-01T09:04:09;27.20;75.10
4509;DHT22;2267;48.816;9.230;2022-08-01T09:06:36;27.20;76.60
4509;DHT22;2267;48.816;9.230;2022-08-01T09:09:04;27.20;74.70
4509;DHT22;2267;48.816;9.230;2022-08-01T09:11:32;27.20;74.50
4509;DHT22;2267;48.816;9.230;2022-08-01T09:16:34;27.30;74.70
4509;DHT22;2267;48.816;9.230;2022-08-01T09:19:17;27.30;74.00
4509;DHT22;2267;48.816;9.230;2022-08-01T09:22:07;27.30;74.20
4509;DHT22;2267;48.816;9.230;2022-08-01T09:24:36;27.20;73.80
4509;DHT22;2267;48.816;9.230;2022-08-01T09:27:24;27.20;74.20
4509;DHT22;2267;48.816;9.230;2022-08-01T09:29:53;27.20;74.30
4509;DHT22;2267;48.816;9.230;2022-08-01T09:32:30;27.30;74.00
4509;DHT22;2267;48.816;9.230;2022-08-01T09:38:14;27.50;73.60
4509;DHT22;2267;48.816;9.230;2022-08-01T09:43:15;27.50;72.90
4509;DHT22;2267;48.816;9.230;2022-08-01T09:45:42;27.50;72.70
4509;DHT22;2267;48.816;9.230;2022-08-01T09:48:14;27.60;72.90
4509;DHT22;2267;48.816;9.230;2022-08-01T09:50:46;27.70;72.30
4509;DHT22;2267;48.816;9.230;2022-08-01T09:53:14;27.70;71.80
4509;DHT22;2267;48.816;9.230;2022-08-01T09:56:11;27.80;72.00
4509;DHT22;2267;48.816;9.230;2022-08-01T09:58:55;27.80;73.00
4509;DHT22;2267;48.816;9.230;2022-08-01T10:01:28;27.80;72.40
4509;DHT22;2267;48.816;9.230;2022-08-01T10:04:25;27.90;72.10
4509;DHT22;2267;48.816;9.230;2022-08-01T10:07:04;28.00;72.10
4509;DHT22;2267;48.816;9.230;2022-08-01T10:09:34;27.90;71.40
4509;DHT22;2267;48.816;9.230;2022-08-01T10:12:07;27.90;70.60
4509;DHT22;2267;48.816;9.230;2022-08-01T10:14:43;27.90;70.20
4509;DHT22;2267;48.816;9.230;2022-08-01T10:17:14;28.00;70.70
4509;DHT22;2267;48.816;9.230;2022-08-01T10:19:46;28.00;70.80
4509;DHT22;2267;48.816;9.230;2022-08-01T10:22:14;28.10;70.60
4509;DHT22;2267;48.816;9.230;2022-08-01T10:24:44;28.20;70.10
4509;DHT22;2267;48.816;9.230;2022-08-01T10:27:15;28.20;69.80
4509;DHT22;2267;48.816;9.230;2022-08-01T10:29:54;28.20;69.30
4509;DHT22;2267;48.816;9.230;2022-08-01T10:32:36;28.20;70.10
4509;DHT22;2267;48.816;9.230;2022-08-01T10:35:06;28.30;69.40
4509;DHT22;2267;48.816;9.230;2022-08-01T10:37:41;28.30;69.60
4509;DHT22;2267;48.816;9.230;2022-08-01T10:40:18;28.30;68.80
4509;DHT22;2267;48.816;9.230;2022-08-01T10:43:02;28.30;68.80
4509;DHT22;2267;48.816;9.230;2022-08-01T10:45:29;28.40;68.40
4509;DHT22;2267;48.816;9.230;2022-08-01T10:48:20;28.50;68.70
4509;DHT22;2267;48.816;9.230;2022-08-01T10:50:53;28.50;67.90
4509;DHT22;2267;48.816;9.230;2022-08-01T10:53:24;28.60;67.70
4509;DHT22;2267;48.816;9.230;2022-08-01T10:56:08;28.70;67.10
4509;DHT22;2267;48.816;9.230;2022-08-01T10:58:43;28.70;66.20
4509;DHT22;2267;48.816;9.230;2022-08-01T11:12:05;29.00;65.90
4509;DHT22;2267;48.816;9.230;2022-08-01T11:20:15;29.30;65.50
4509;DHT22;2267;48.816;9.230;2022-08-01T11:28:25;29.90;62.90
4509;DHT22;2267;48.816;9.230;2022-08-01T11:41:40;30.70;60.10
4509;DHT22;2267;48.816;9.230;2022-08-01T11:44:47;30.70;60.00
4509;DHT22;2267;48.816;9.230;2022-08-01T11:47:15;30.90;59.70
4509;DHT22;2267;48.816;9.230;2022-08-01T11:49:47;31.00;59.60
4509;DHT22;2267;48.816;9.230;2022-08-01T11:52:30;31.10;59.50
4509;DHT22;2267;48.816;9.230;2022-08-01T11:55:08;31.20;59.50
4509;DHT22;2267;48.816;9.230;2022-08-01T11:57:37;31.30;59.00
4509;DHT22;2267;48.816;9.230;2022-08-01T12:00:14;31.40;58.60
4509;DHT22;2267;48.816;9.230;2022-08-01T12:02:45;31.20;58.50
4509;DHT22;2267;48.816;9.230;2022-08-01T12:05:14;31.10;58.90
4509;DHT22;2267;48.816;9.230;2022-08-01T12:07:44;31.10;58.90
4509;DHT22;2267;48.816;9.230;2022-08-01T12:10:14;31.10;58.80
4509;DHT22;2267;48.816;9.230;2022-08-01T12:12:50;31.00;58.90
4509;DHT22;2267;48.816;9.230;2022-08-01T12:15:19;31.00;58.50
4509;DHT22;2267;48.816;9.230;2022-08-01T12:17:51;30.90;58.80
4509;DHT22;2267;48.816;9.230;2022-08-01T12:20:33;31.00;59.30
4509;DHT22;2267;48.816;9.230;2022-08-01T12:23:02;31.20;58.70
4509;DHT22;2267;48.816;9.230;2022-08-01T12:25:29;31.40;58.20
4509;DHT22;2267;48.816;9.230;2022-08-01T12:28:03;31.40;57.30
4509;DHT22;2267;48.816;9.230;2022-08-01T12:30:31;31.50;57.70
4509;DHT22;2267;48.816;9.230;2022-08-01T12:33:06;31.60;58.00
4509;DHT22;2267;48.816;9.230;2022-08-01T12:35:34;31.70;57.60
4509;DHT22;2267;48.816;9.230;2022-08-01T12:38:13;31.70;57.70
4509;DHT22;2267;48.816;9.230;2022-08-01T12:40:42;31.70;58.10
4509;DHT22;2267;48.816;9.230;2022-08-01T12:43:16;31.80;58.20
4509;DHT22;2267;48.816;9.230;2022-08-01T12:45:56;32.10;57.50
4509;DHT22;2267;48.816;9.230;2022-08-01T12:48:25;32.20;57.70
4509;DHT22;2267;48.816;9.230;2022-08-01T12:50:53;32.30;56.60
4509;DHT22;2267;48.816;9.230;2022-08-01T12:53:22;32.40;56.50
4509;DHT22;2267;48.816;9.230;2022-08-01T12:55:51;32.30;56.10
4509;DHT22;2267;48.816;9.230;2022-08-01T12:58:31;32.30;56.50
4509;DHT22;2267;48.816;9.230;2022-08-01T13:01:07;32.50;56.90
4509;DHT22;2267;48.816;9.230;2022-08-01T13:03:35;32.70;56.00
4509;DHT22;2267;48.816;9.230;2022-08-01T13:06:10;32.60;55.40
4509;DHT22;2267;48.816;9.230;2022-08-01T13:08:37;32.30;55.40
4509;DHT22;2267;48.816;9.230;2022-08-01T13:11:12;32.20;55.90
4509;DHT22;2267;48.816;9.230;2022-08-01T13:13:49;32.20;56.30
4509;DHT22;2267;48.816;9.230;2022-08-01T13:16:20;32.00;56.50
4509;DHT22;2267;48.816;9.230;2022-08-01T13:19:04;31.80;56.50
4509;DHT22;2267;48.816;9.230;2022-08-01T13:21:32;31.80;57.00
4509;DHT22;2267;48.816;9.230;2022-08-01T13:24:37;32.00;56.70
4509;DHT22;2267;48.816;9.230;2022-08-01T13:27:05;32.40;56.90
4509;DHT22;2267;48.816;9.230;2022-08-01T13:29:35;32.50;56.30
4509;DHT22;2267;48.816;9.230;2022-08-01T13:37:29;32.90;55.40
4509;DHT22;2267;48.816;9.230;2022-08-01T13:39:57;32.80;55.50
4509;DHT22;2267;48.816;9.230;2022-08-01T13:42:24;32.80;54.80
4509;DHT22;2267;48.816;9.230;2022-08-01T13:44:51;32.80;54.60
4509;DHT22;2267;48.816;9.230;2022-08-01T13:47:18;32.60;54.80
4509;DHT22;2267;48.816;9.230;2022-08-01T13:49:56;32.40;55.00
4509;DHT22;2267;48.816;9.230;2022-08-01T13:52:28;32.20;55.50
4509;DHT22;2267;48.816;9.230;2022-08-01T13:54:54;32.20;55.90
4509;DHT22;2267;48.816;9.230;2022-08-01T13:57:21;32.40;57.00
4509;DHT22;2267;48.816;9.230;2022-08-01T13:59:48;32.40;55.80
4509;DHT22;2267;48.816;9.230;2022-08-01T14:02:15;32.40;55.70
4509;DHT22;2267;48.816;9.230;2022-08-01T14:04:42;32.40;55.80
4509;DHT22;2267;48.816;9.230;2022-08-01T14:07:09;32.20;55.50
4509;DHT22;2267;48.816;9.230;2022-08-01T14:09:41;32.10;56.20
4509;DHT22;2267;48.816;9.230;2022-08-01T14:12:28;32.10;56.00
4509;DHT22;2267;48.816;9.230;2022-08-01T14:14:55;32.30;55.60
4509;DHT22;2267;48.816;9.230;2022-08-01T14:17:23;32.50;55.70
4509;DHT22;2267;48.816;9.230;2022-08-01T14:19:50;32.80;55.30
4509;DHT22;2267;48.816;9.230;2022-08-01T14:22:16;33.00;54.90
4509;DHT22;2267;48.816;9.230;2022-08-01T14:24:43;33.00;54.70
4509;DHT22;2267;48.816;9.230;2022-08-01T14:27:10;33.00;54.30
4509;DHT22;2267;48.816;9.230;2022-08-01T14:29:37;32.90;54.40
4509;DHT22;2267;48.816;9.230;2022-08-01T14:32:24;32.90;54.70
4509;DHT22;2267;48.816;9.230;2022-08-01T14:34:55;32.90;55.00
4509;DHT22;2267;48.816;9.230;2022-08-01T14:37:22;32.90;54.80
4509;DHT22;2267;48.816;9.230;2022-08-01T14:39:57;33.10;54.70
4509;DHT22;2267;48.816;9.230;2022-08-01T14:42:24;33.10;54.20
4509;DHT22;2267;48.816;9.230;2022-08-01T14:44:52;33.10;54.20
4509;DHT22;2267;48.816;9.230;2022-08-01T14:47:19;33.10;54.20
4509;DHT22;2267;48.816;9.230;2022-08-01T14:49:48;33.10;54.10
4509;DHT22;2267;48.816;9.230;2022-08-01T14:52:16;33.20;53.90
4509;DHT22;2267;48.816;9.230;2022-08-01T14:54:43;33.20;53.50
4509;DHT22;2267;48.816;9.230;2022-08-01T14:57:11;33.30;54.00
4509;DHT22;2267;48.816;9.230;2022-08-01T14:59:38;33.30;53.80
4509;DHT22;2267;48.816;9.230;2022-08-01T15:02:05;33.40;53.90
4509;DHT22;2267;48.816;9.230;2022-08-01T15:04:32;33.60;53.60
4509;DHT22;2267;48.816;9.230;2022-08-01T15:06:59;33.40;53.30
4509;DHT22;2267;48.816;9.230;2022-08-01T15:09:26;33.40;53.70
4509;DHT22;2267;48.816;9.230;2022-08-01T15:11:53;33.30;52.90
4509;DHT22;2267;48.816;9.230;2022-08-01T15:14:20;33.00;53.50
4509;DHT22;2267;48.816;9.230;2022-08-01T15:17:05;32.80;53.90
4509;DHT22;2267;48.816;9.230;2022-08-01T15:19:34;32.60;54.20
4509;DHT22;2267;48.816;9.230;2022-08-01T15:22:07;32.50;54.70
4509;DHT22;2267;48.816;9.230;2022-08-01T15:24:34;32.40;55.10
4509;DHT22;2267;48.816;9.230;2022-08-01T15:27:01;32.40;54.40
4509;DHT22;2267;48.816;9.230;2022-08-01T15:29:28;32.50;54.70
4509;DHT22;2267;48.816;9.230;2022-08-01T15:31:55;32.50;54.70
4509;DHT22;2267;48.816;9.230;2022-08-01T15:34:22;32.60;54.40
4509;DHT22;2267;48.816;9.230;2022-08-01T15:36:49;32.50;54.20
4509;DHT22;2267;48.816;9.230;2022-08-01T15:39:16;32.40;54.50
4509;DHT22;2267;48.816;9.230;2022-08-01T15:41:43;32.40;54.20
4509;DHT22;2267;48.816;9.230;2022-08-01T15:44:10;32.50;54.60
4509;DHT22;2267;48.816;9.230;2022-08-01T15:46:37;32.60;54.10
4509;DHT22;2267;48.816;9.230;2022-08-01T15:49:04;32.70;54.20
4509;DHT22;2267;48.816;9.230;2022-08-01T15:51:32;32.70;53.90
4509;DHT22;2267;48.816;9.230;2022-08-01T15:53:59;32.60;54.00
4509;DHT22;2267;48.816;9.230;2022-08-01T15:56:29;32.40;53.90
4509;DHT22;2267;48.816;9.230;2022-08-01T15:58:57;32.30;54.40
4509;DHT22;2267;48.816;9.230;2022-08-01T16:01:24;32.30;54.20
4509;DHT22;2267;48.816;9.230;2022-08-01T16:03:53;32.10;54.40
4509;DHT22;2267;48.816;9.230;2022-08-01T16:06:21;31.90;54.10
4509;DHT22;2267;48.816;9.230;2022-08-01T16:08:48;31.80;54.40
4509;DHT22;2267;48.816;9.230;2022-08-01T16:11:16;31.80;54.70
4509;DHT22;2267;48.816;9.230;2022-08-01T16:13:43;31.70;54.80
4509;DHT22;2267;48.816;9.230;2022-08-01T16:16:11;31.60;54.90
4509;DHT22;2267;48.816;9.230;2022-08-01T16:18:38;31.60;55.30
4509;DHT22;2267;48.816;9.230;2022-08-01T16:21:05;31.50;55.30
4509;DHT22;2267;48.816;9.230;2022-08-01T16:23:33;31.40;55.60
4509;DHT22;2267;48.816;9.230;2022-08-01T16:26:00;31.40;55.70
4509;DHT22;2267;48.816;9.230;2022-08-01T16:28:27;31.40;55.50
4509;DHT22;2267;48.816;9.230;2022-08-01T16:30:54;31.40;55.70
4509;DHT22;2267;48.816;9.230;2022-08-01T16:33:41;31.40;55.50
4509;DHT22;2267;48.816;9.230;2022-08-01T16:36:19;31.30;55.50
4509;DHT22;2267;48.816;9.230;2022-08-01T16:38:46;31.20;55.80
4509;DHT22;2267;48.816;9.230;2022-08-01T16:41:13;31.10;55.80
4509;DHT22;2267;48.816;9.230;2022-08-01T16:43:47;31.10;56.10
4509;DHT22;2267;48.816;9.230;2022-08-01T16:46:20;31.10;56.10
4509;DHT22;2267;48.816;9.230;2022-08-01T16:48:47;31.00;56.90
4509;DHT22;2267;48.816;9.230;2022-08-01T16:51:14;30.90;56.10
4509;DHT22;2267;48.816;9.230;2022-08-01T16:53:41;30.80;56.30
4509;DHT22;2267;48.816;9.230;2022-08-01T16:56:08;30.70;56.80
4509;DHT22;2267;48.816;9.230;2022-08-01T16:58:35;30.70;56.90
4509;DHT22;2267;48.816;9.230;2022-08-01T17:01:02;30.60;57.10
4509;DHT22;2267;48.816;9.230;2022-08-01T17:03:49;30.50;57.20
4509;DHT22;2267;48.816;9.230;2022-08-01T17:06:19;30.50;57.10
4509;DHT22;2267;48.816;9.230;2022-08-01T17:08:48;30.50;57.10
4509;DHT22;2267;48.816;9.230;2022-08-01T17:11:15;30.40;57.30
4509;DHT22;2267;48.816;9.230;2022-08-01T17:13:42;30.40;57.30